Terminal Aerodrome Forecast
Issued by NWS

Home | Current Version | Previous Version | Text Only | Print | Product List | Glossary Off
Versions: 1 2 3 4 5 6 7 8 9 10 11 12 13 14

054
FTUS45 KRIW 282329
TAFBPI
TAF
KBPI 282329Z 2900/2924 31020G40KT P6SM VCTS SCT070CB BKN090
     FM290130 34014G20KT P6SM VCTS SCT060 BKN080CB
     FM290300 34011KT P6SM VCSH BKN100
     FM290600 35007KT P6SM FEW100
     FM291600 32012G18KT P6SM SCT060 BKN090
     FM292000 34016G25KT P6SM BKN080=

USA.gov is the U.S. government's official web portal to all federal, state and local government web resources and services.